Time;durP1;ratioP1;P1;durP2;ratioP2;P2;SDS_P1;SDS_P2;PMS_P1;PMS_P2;Temp;Humidity;BMP_temperature;BMP_pressure;BME280_temperature;BME280_humidity;BME280_pressure;Samples;Min_cycle;Max_cycle;Signal;HPM_P1;HPM_P2
2022/09/15 00:01:37;;;;;;;;;7.50;6.00;;;26.73;100384.89;;;;117148;1192;26413;-71
2022/09/15 00:04:05;;;;;;;;;8.75;6.50;;;26.73;100381.48;;;;117183;1191;25200;-70
2022/09/15 00:06:34;;;;;;;;;7.00;7.00;;;26.72;100376.92;;;;117405;1189;25352;-70
2022/09/15 00:09:03;;;;;;;;;6.25;6.25;;;26.72;100369.91;;;;117178;1191;24845;-69
2022/09/15 00:11:34;;;;;;;;;9.67;8.33;;;26.70;100363.85;;;;117100;1192;25522;-70
2022/09/15 00:14:04;;;;;;;;;8.00;7.75;;;26.71;100362.73;;;;117095;1192;25651;-69
2022/09/15 00:16:33;;;;;;;;;10.75;7.50;;;26.71;100357.84;;;;117165;1191;25416;-69
2022/09/15 00:19:03;;;;;;;;;11.33;6.00;;;26.71;100354.67;;;;117139;1192;25577;-70
2022/09/15 00:21:33;;;;;;;;;8.00;5.33;;;26.70;100346.46;;;;117183;1191;24923;-70
2022/09/15 00:24:02;;;;;;;;;8.33;7.33;;;26.71;100348.61;;;;117147;1191;24844;-70
2022/09/15 00:26:31;;;;;;;;;9.33;7.67;;;26.71;100340.80;;;;117459;1190;24735;-71
2022/09/15 00:29:00;;;;;;;;;10.25;8.25;;;26.70;100335.61;;;;117177;1192;25128;-71
2022/09/15 00:31:30;;;;;;;;;6.25;6.25;;;26.70;100329.38;;;;117096;1191;24989;-73
2022/09/15 00:34:03;;;;;;;;;6.67;6.67;;;26.72;100325.87;;;;117150;1191;25214;-71
2022/09/15 00:36:32;;;;;;;;;6.25;6.25;;;26.72;100325.08;;;;117405;1190;25281;-71
2022/09/15 00:39:00;;;;;;;;;8.00;8.00;;;26.72;100324.84;;;;117191;1191;25285;-70
2022/09/15 00:41:29;;;;;;;;;8.33;8.33;;;26.71;100323.67;;;;117092;1192;25702;-70
2022/09/15 00:43:57;;;;;;;;;12.50;8.50;;;26.71;100320.70;;;;117077;1191;24754;-70
2022/09/15 00:46:32;;;;;;;;;6.33;6.33;;;26.70;100319.45;;;;117406;1191;24944;-70
2022/09/15 00:49:18;;;;;;;;;9.75;8.25;;;26.70;100318.58;;;;117173;1192;25372;-70
2022/09/15 00:52:03;;;;;;;;;7.00;6.00;;;26.70;100317.75;;;;117130;1192;25602;-70
2022/09/15 00:54:40;;;;;;;;;8.67;7.67;;;26.72;100315.89;;;;117164;1192;24910;-71
2022/09/15 00:57:36;;;;;;;;;6.75;6.75;;;26.73;100312.11;;;;117186;1191;25066;-71
2022/09/15 01:00:11;;;;;;;;;7.67;6.33;;;26.75;100308.66;;;;117182;1192;25549;-70
2022/09/15 01:02:41;;;;;;;;;10.33;7.00;;;26.76;100301.73;;;;117106;1191;25681;-71
2022/09/15 01:05:12;;;;;;;;;7.25;7.00;;;26.75;100302.13;;;;117165;1191;25520;-70
2022/09/15 01:07:52;;;;;;;;;8.00;6.00;;;26.72;100297.42;;;;117112;1190;25112;-70
2022/09/15 01:10:32;;;;;;;;;6.33;5.33;;;26.70;100295.41;;;;117168;1191;24878;-70
2022/09/15 01:13:04;;;;;;;;;10.75;8.25;;;26.69;100289.60;;;;117175;1192;25451;-72
2022/09/15 01:15:41;;;;;;;;;10.67;5.33;;;26.70;100282.38;;;;117141;1191;25393;-71
2022/09/15 01:18:41;;;;;;;;;7.25;7.25;;;26.69;100279.21;;;;117374;1190;25526;-71
2022/09/15 01:21:19;;;;;;;;;7.25;6.25;;;26.70;100279.27;;;;117105;1193;25136;-72
2022/09/15 01:24:05;;;;;;;;;11.00;8.50;;;26.72;100278.43;;;;117158;1191;25596;-72
2022/09/15 01:26:51;;;;;;;;;7.50;6.00;;;26.73;100280.24;;;;117170;1191;24987;-72
2022/09/15 01:29:50;;;;;;;;;6.50;6.00;;;26.73;100280.61;;;;117156;1191;25254;-70
2022/09/15 01:35:47;;;;;;;;;8.25;7.50;;;26.68;100275.15;;;;117384;1189;25228;-72
2022/09/15 01:38:44;;;;;;;;;9.00;9.00;;;26.67;100270.59;;;;117421;1191;25001;-72
2022/09/15 01:41:24;;;;;;;;;7.50;7.50;;;26.69;100273.22;;;;117114;1191;24766;-72
2022/09/15 01:44:04;;;;;;;;;7.75;7.00;;;26.70;100265.70;;;;117398;1191;24888;-72
2022/09/15 01:46:36;;;;;;;;;7.00;6.67;;;26.71;100262.00;;;;117168;1191;25371;-70
2022/09/15 01:49:06;;;;;;;;;7.33;6.67;;;26.71;100254.75;;;;117390;1191;25392;-69
2022/09/15 01:51:36;;;;;;;;;6.50;6.50;;;26.71;100249.05;;;;117119;1192;25076;-72
2022/09/15 01:54:05;;;;;;;;;9.00;7.00;;;26.69;100252.56;;;;117383;1191;25350;-69
2022/09/15 01:56:36;;;;;;;;;10.33;10.33;;;26.70;100247.81;;;;117039;1193;24873;-69
2022/09/15 01:59:04;;;;;;;;;7.25;5.75;;;26.70;100250.81;;;;117084;1192;25536;-70
2022/09/15 02:01:43;;;;;;;;;9.00;9.00;;;26.69;100255.83;;;;117073;1193;25773;-69
2022/09/15 02:04:45;;;;;;;;;9.33;9.33;;;26.70;100256.57;;;;117140;1192;24782;-70
2022/09/15 02:07:34;;;;;;;;;7.25;7.25;;;26.75;100270.15;;;;116952;1192;25143;-69
2022/09/15 02:10:35;;;;;;;;;6.00;6.00;;;26.79;100277.14;;;;117025;1193;25015;-69
2022/09/15 02:13:15;;;;;;;;;6.33;6.33;;;26.79;100282.43;;;;116887;1194;25152;-69
2022/09/15 02:15:50;;;;;;;;;6.50;6.50;;;26.75;100288.55;;;;117017;1194;25110;-71
2022/09/15 02:18:42;;;;;;;;;12.00;8.33;;;26.74;100287.92;;;;117002;1193;24887;-72
2022/09/15 02:21:17;;;;;;;;;7.00;6.33;;;26.75;100286.08;;;;117001;1193;25239;-73
2022/09/15 02:23:49;;;;;;;;;9.50;7.50;;;26.76;100287.83;;;;117001;1193;25523;-72
2022/09/15 02:26:23;;;;;;;;;12.00;10.25;;;26.74;100289.58;;;;117015;1193;25580;-72
2022/09/15 02:28:54;;;;;;;;;9.00;8.00;;;26.72;100287.31;;;;116984;1193;24848;-72
2022/09/15 02:31:24;;;;;;;;;10.50;8.75;;;26.70;100278.67;;;;117010;1194;25214;-72
2022/09/15 02:34:07;;;;;;;;;7.75;7.00;;;26.68;100264.51;;;;117027;1194;25406;-72
2022/09/15 02:36:37;;;;;;;;;9.67;7.33;;;26.66;100250.33;;;;116995;1193;25600;-71
2022/09/15 02:39:12;;;;;;;;;9.75;8.50;;;26.66;100241.77;;;;117031;1193;25041;-74
2022/09/15 02:41:41;;;;;;;;;11.50;8.50;;;26.65;100243.09;;;;117144;1193;25473;-71
2022/09/15 02:44:10;;;;;;;;;10.50;9.25;;;26.63;100246.52;;;;117064;1193;25777;-70
2022/09/15 02:46:39;;;;;;;;;10.00;9.67;;;26.62;100240.52;;;;117050;1193;25189;-70
2022/09/15 02:49:07;;;;;;;;;8.00;8.00;;;26.61;100237.39;;;;117003;1192;24843;-71
2022/09/15 02:51:36;;;;;;;;;7.00;5.25;;;26.60;100228.38;;;;117105;1192;25753;-70
2022/09/15 02:54:05;;;;;;;;;8.00;7.33;;;26.60;100228.48;;;;117128;1191;25119;-71
2022/09/15 02:56:33;;;;;;;;;9.00;9.00;;;26.59;100228.34;;;;117160;1191;25646;-70
2022/09/15 02:59:01;;;;;;;;;7.00;7.00;;;26.58;100232.70;;;;117135;1191;24806;-72
2022/09/15 03:01:31;;;;;;;;;10.25;8.75;;;26.58;100235.95;;;;117155;1190;24944;-72
2022/09/15 03:04:01;;;;;;;;;10.75;9.25;;;26.58;100232.67;;;;117423;1190;25199;-71
2022/09/15 03:06:33;;;;;;;;;8.00;7.50;;;26.58;100230.50;;;;117391;1189;25424;-72
2022/09/15 03:09:06;;;;;;;;;9.75;9.00;;;26.57;100238.67;;;;117178;1191;24949;-70
2022/09/15 03:11:35;;;;;;;;;9.00;9.00;;;26.58;100244.24;;;;117084;1191;24966;-71
2022/09/15 03:14:05;;;;;;;;;5.25;5.25;;;26.58;100251.39;;;;117202;1192;24821;-71
2022/09/15 03:16:34;;;;;;;;;5.33;5.33;;;26.58;100242.94;;;;117382;1189;25050;-71
2022/09/15 03:19:03;;;;;;;;;12.00;8.25;;;26.57;100242.38;;;;117161;1192;25132;-71
2022/09/15 03:21:32;;;;;;;;;8.50;7.50;;;26.57;100236.55;;;;117166;1191;25258;-71
2022/09/15 03:24:01;;;;;;;;;9.25;8.25;;;26.56;100229.40;;;;117385;1191;24987;-70
2022/09/15 03:26:29;;;;;;;;;10.00;7.75;;;26.56;100226.27;;;;117161;1191;25331;-70
2022/09/15 03:28:58;;;;;;;;;9.75;9.25;;;26.56;100219.88;;;;117116;1192;24950;-69
2022/09/15 03:31:26;;;;;;;;;9.25;8.50;;;26.56;100222.95;;;;117152;1191;24730;-68
2022/09/15 03:33:55;;;;;;;;;7.75;7.25;;;26.55;100222.55;;;;117132;1192;25208;-69
2022/09/15 03:36:23;;;;;;;;;10.25;9.00;;;26.53;100222.05;;;;117138;1191;24996;-69
2022/09/15 03:38:52;;;;;;;;;10.25;8.50;;;26.52;100224.81;;;;117190;1192;25230;-70
2022/09/15 03:41:20;;;;;;;;;7.25;5.25;;;26.52;100217.52;;;;117141;1191;25672;-70
2022/09/15 03:43:48;;;;;;;;;10.25;7.50;;;26.52;100213.77;;;;117164;1192;25698;-70
2022/09/15 03:46:17;;;;;;;;;11.25;8.75;;;26.52;100213.60;;;;117162;1191;24877;-70
2022/09/15 03:48:46;;;;;;;;;10.50;8.50;;;26.52;100214.52;;;;117177;1191;25224;-72
2022/09/15 03:51:14;;;;;;;;;7.00;7.00;;;26.52;100216.55;;;;117149;1189;24739;-73
2022/09/15 03:53:43;;;;;;;;;9.25;7.50;;;26.53;100223.40;;;;117156;1190;24755;-72
2022/09/15 03:56:23;;;;;;;;;11.50;8.50;;;26.52;100229.68;;;;117172;1192;24946;-72
2022/09/15 03:58:53;;;;;;;;;13.75;8.00;;;26.54;100226.23;;;;117107;1192;25257;-73
2022/09/15 04:01:22;;;;;;;;;6.75;6.00;;;26.55;100223.73;;;;117054;1193;24721;-71
2022/09/15 04:03:51;;;;;;;;;16.00;10.33;;;26.57;100225.91;;;;117058;1193;25149;-73
2022/09/15 04:06:21;;;;;;;;;10.50;8.50;;;26.58;100225.94;;;;117104;1193;25169;-80
2022/09/15 04:08:50;;;;;;;;;10.00;9.00;;;26.59;100218.29;;;;117138;1193;25016;-75
2022/09/15 04:11:21;;;;;;;;;9.25;8.50;;;26.58;100214.86;;;;117058;1193;25552;-75
2022/09/15 04:13:49;;;;;;;;;10.75;8.50;;;26.58;100216.54;;;;117016;1193;25299;-76
2022/09/15 04:16:21;;;;;;;;;10.00;9.00;;;26.58;100220.79;;;;116936;1193;25520;-75
2022/09/15 04:18:51;;;;;;;;;11.67;9.00;;;26.58;100213.41;;;;117131;1193;25344;-75
2022/09/15 04:21:25;;;;;;;;;10.75;9.00;;;26.58;100204.29;;;;117089;1193;25339;-71
2022/09/15 04:23:54;;;;;;;;;10.67;8.67;;;26.57;100201.52;;;;117121;1193;25597;-70
2022/09/15 04:26:31;;;;;;;;;10.75;7.75;;;26.57;100198.49;;;;117140;1193;25253;-70
2022/09/15 04:29:01;;;;;;;;;4.00;2.25;;;26.56;100196.95;;;;117146;1191;25567;-70
2022/09/15 04:31:33;;;;;;;;;7.50;5.25;;;26.58;100201.27;;;;117124;1191;24940;-70
2022/09/15 04:34:01;;;;;;;;;7.00;7.00;;;26.58;100206.42;;;;117083;1192;24678;-70
2022/09/15 04:36:30;;;;;;;;;8.50;8.00;;;26.57;100202.58;;;;117085;1193;25200;-70
2022/09/15 04:38:59;;;;;;;;;12.67;9.33;;;26.56;100198.67;;;;117107;1192;25141;-70
2022/09/15 04:41:27;;;;;;;;;9.00;5.33;;;26.57;100201.55;;;;117072;1193;25248;-70
2022/09/15 04:43:57;;;;;;;;;14.00;11.67;;;26.56;100201.86;;;;117068;1193;25319;-70
2022/09/15 04:46:25;;;;;;;;;8.67;8.67;;;26.57;100199.79;;;;117041;1192;25495;-68
2022/09/15 04:48:54;;;;;;;;;8.33;8.00;;;26.56;100195.69;;;;117016;1193;25496;-66
2022/09/15 04:51:23;;;;;;;;;11.25;9.50;;;26.56;100198.98;;;;117159;1192;25520;-67
2022/09/15 04:53:52;;;;;;;;;13.00;11.67;;;26.55;100203.29;;;;117176;1191;25358;-70
2022/09/15 04:56:23;;;;;;;;;10.33;9.00;;;26.56;100200.77;;;;117172;1193;25200;-68
2022/09/15 04:58:56;;;;;;;;;11.00;9.00;;;26.55;100199.02;;;;117091;1191;25465;-73
2022/09/15 05:01:33;;;;;;;;;8.50;8.00;;;26.56;100196.00;;;;117101;1192;25216;-71
2022/09/15 05:04:05;;;;;;;;;3.50;3.50;;;26.58;100192.75;;;;117157;1192;25516;-69
2022/09/15 05:06:34;;;;;;;;;9.00;9.00;;;26.57;100190.72;;;;117040;1193;25273;-70
2022/09/15 05:09:04;;;;;;;;;13.67;11.00;;;26.56;100192.75;;;;117125;1191;25229;-70
2022/09/15 05:11:37;;;;;;;;;11.50;8.75;;;26.59;100198.20;;;;117064;1192;24885;-71
2022/09/15 05:14:06;;;;;;;;;6.00;4.00;;;26.60;100204.66;;;;117093;1193;25347;-74
2022/09/15 05:16:35;;;;;;;;;11.00;10.50;;;26.59;100204.89;;;;117065;1193;25684;-69
2022/09/15 05:19:04;;;;;;;;;10.00;9.50;;;26.59;100214.63;;;;116928;1193;25355;-70
2022/09/15 05:21:33;;;;;;;;;8.25;6.75;;;26.61;100212.71;;;;117028;1193;25573;-70
2022/09/15 05:24:02;;;;;;;;;9.50;8.25;;;26.62;100208.33;;;;117105;1193;24861;-70
2022/09/15 05:26:30;;;;;;;;;12.00;10.67;;;26.63;100209.98;;;;117054;1193;25132;-68
2022/09/15 05:28:59;;;;;;;;;12.50;11.00;;;26.61;100211.58;;;;117114;1193;24848;-69
2022/09/15 05:31:30;;;;;;;;;9.00;9.00;;;26.62;100205.77;;;;117083;1193;24859;-70
2022/09/15 05:34:01;;;;;;;;;12.25;10.25;;;26.61;100201.47;;;;117026;1192;25321;-70
2022/09/15 05:36:29;;;;;;;;;10.75;10.75;;;26.61;100193.54;;;;117158;1193;24947;-69
2022/09/15 05:38:57;;;;;;;;;11.00;11.00;;;26.62;100190.05;;;;117056;1192;25745;-69
2022/09/15 05:41:27;;;;;;;;;12.75;10.50;;;26.61;100191.30;;;;117046;1193;25444;-67
2022/09/15 05:43:56;;;;;;;;;9.00;9.00;;;26.61;100189.76;;;;117117;1193;25186;-72
2022/09/15 05:46:26;;;;;;;;;11.00;10.00;;;26.61;100188.19;;;;117010;1193;25170;-70
2022/09/15 05:48:56;;;;;;;;;9.75;9.75;;;26.61;100184.79;;;;117024;1192;25443;-69
2022/09/15 05:51:25;;;;;;;;;10.33;9.33;;;26.61;100180.42;;;;117061;1193;25700;-69
2022/09/15 05:53:53;;;;;;;;;9.25;8.25;;;26.60;100173.45;;;;117027;1193;24996;-69
2022/09/15 05:56:22;;;;;;;;;9.50;9.50;;;26.60;100176.84;;;;117037;1193;24705;-70
2022/09/15 05:58:51;;;;;;;;;14.25;11.00;;;26.60;100170.64;;;;117118;1192;24759;-70
2022/09/15 06:01:22;;;;;;;;;11.75;11.00;;;26.60;100171.19;;;;117037;1193;25343;-70
2022/09/15 06:03:51;;;;;;;;;7.75;7.25;;;26.60;100166.41;;;;117113;1192;24846;-69
2022/09/15 06:06:21;;;;;;;;;9.33;9.33;;;26.62;100161.73;;;;117120;1192;25326;-70
2022/09/15 06:08:54;;;;;;;;;10.67;9.67;;;26.63;100158.63;;;;117057;1193;25698;-70
2022/09/15 06:11:29;;;;;;;;;10.50;9.50;;;26.64;100160.68;;;;117118;1191;24993;-71
2022/09/15 06:13:59;;;;;;;;;9.00;9.00;;;26.66;100157.38;;;;117040;1193;25256;-70
2022/09/15 06:16:31;;;;;;;;;12.25;9.50;;;26.67;100161.41;;;;117122;1192;25816;-71
2022/09/15 06:19:00;;;;;;;;;12.67;10.33;;;26.68;100167.36;;;;117140;1192;25153;-75
2022/09/15 06:21:29;;;;;;;;;11.33;11.33;;;26.68;100176.77;;;;117207;1192;25094;-69
2022/09/15 06:24:00;;;;;;;;;14.33;11.00;;;26.68;100179.25;;;;117131;1193;25449;-69
2022/09/15 06:26:29;;;;;;;;;12.25;10.50;;;26.68;100179.88;;;;117166;1193;25736;-69
2022/09/15 06:28:59;;;;;;;;;13.00;11.00;;;26.69;100175.64;;;;117012;1193;24957;-70
2022/09/15 06:31:30;;;;;;;;;15.25;13.50;;;26.68;100175.81;;;;117111;1192;25127;-71
2022/09/15 06:33:59;;;;;;;;;13.75;11.75;;;26.67;100176.09;;;;117135;1192;24699;-69
2022/09/15 06:36:29;;;;;;;;;15.00;12.25;;;26.67;100182.77;;;;117062;1193;25028;-70
2022/09/15 06:38:58;;;;;;;;;12.50;12.00;;;26.73;100182.67;;;;117127;1193;25540;-71
2022/09/15 06:41:29;;;;;;;;;18.00;12.33;;;26.76;100173.48;;;;117115;1193;24705;-71
2022/09/15 06:44:18;;;;;;;;;10.67;10.67;;;26.79;100170.27;;;;117036;1193;24871;-70
2022/09/15 06:46:47;;;;;;;;;11.25;9.00;;;26.83;100175.19;;;;117042;1193;24788;-70
2022/09/15 06:49:16;;;;;;;;;8.67;8.00;;;26.82;100174.22;;;;117079;1192;25310;-70
2022/09/15 06:51:45;;;;;;;;;16.33;12.00;;;26.83;100167.90;;;;117098;1191;25147;-71
2022/09/15 06:54:14;;;;;;;;;13.50;11.50;;;26.83;100156.94;;;;117082;1192;25337;-69
2022/09/15 06:56:44;;;;;;;;;17.00;15.50;;;26.79;100161.06;;;;117180;1192;24787;-69
2022/09/15 06:59:14;;;;;;;;;16.00;13.00;;;26.80;100152.96;;;;117086;1192;25608;-78
2022/09/15 07:01:51;;;;;;;;;17.25;12.50;;;26.82;100146.33;;;;117186;1190;24961;-73
2022/09/15 07:04:21;;;;;;;;;16.50;15.50;;;26.84;100161.06;;;;117177;1191;25987;-71
2022/09/15 07:06:49;;;;;;;;;27.00;18.00;;;26.81;100166.89;;;;117203;1191;24779;-75
2022/09/15 07:09:18;;;;;;;;;23.50;15.75;;;26.80;100170.48;;;;117137;1192;24711;-74
2022/09/15 07:11:46;;;;;;;;;31.25;19.00;;;26.83;100169.83;;;;117500;1191;24675;-75
2022/09/15 07:14:15;;;;;;;;;23.50;15.25;;;26.84;100170.50;;;;117368;1190;24814;-74
2022/09/15 07:16:44;;;;;;;;;29.00;21.00;;;26.85;100169.80;;;;117403;1190;25698;-77
2022/09/15 07:19:12;;;;;;;;;23.75;16.00;;;26.84;100176.94;;;;117316;1191;25309;-75
2022/09/15 07:21:41;;;;;;;;;20.50;16.50;;;26.84;100178.86;;;;117048;1193;24884;-73
2022/09/15 07:24:09;;;;;;;;;27.50;16.50;;;26.83;100172.55;;;;117165;1192;25629;-80
2022/09/15 07:26:38;;;;;;;;;20.75;14.75;;;26.84;100160.02;;;;117153;1191;24941;-76
2022/09/15 07:29:06;;;;;;;;;23.00;14.33;;;26.84;100161.55;;;;117129;1191;25429;-78
2022/09/15 07:31:37;;;;;;;;;26.50;17.50;;;26.84;100156.48;;;;117160;1192;25358;-70
2022/09/15 07:34:06;;;;;;;;;17.50;15.00;;;26.85;100160.06;;;;118212;1193;25327;-77
2022/09/15 07:36:35;;;;;;;;;27.00;19.75;;;27.04;100156.61;;;;118249;1191;25489;-74
2022/09/15 07:39:05;;;;;;;;;20.50;16.75;;;27.27;100156.14;;;;117469;1191;25208;-84
2022/09/15 07:41:33;;;;;;;;;23.75;17.25;;;27.26;100156.28;;;;117321;1189;25195;-79
2022/09/15 07:44:02;;;;;;;;;18.25;16.75;;;27.11;100155.23;;;;117442;1191;25199;-75
2022/09/15 07:46:32;;;;;;;;;24.25;16.25;;;27.15;100150.88;;;;117051;1192;25530;-76
2022/09/15 07:49:01;;;;;;;;;17.50;15.25;;;27.13;100144.36;;;;117150;1192;25135;-78
2022/09/15 07:51:30;;;;;;;;;22.00;15.50;;;27.11;100131.33;;;;117188;1191;26239;-79
2022/09/15 07:53:59;;;;;;;;;17.25;15.50;;;27.10;100133.00;;;;117162;1191;25674;-78
2022/09/15 07:56:28;;;;;;;;;23.00;16.00;;;27.06;100130.87;;;;117203;1191;24937;-77
2022/09/15 07:58:56;;;;;;;;;14.50;11.00;;;27.06;100127.03;;;;117143;1192;25435;-77
2022/09/15 08:01:25;;;;;;;;;18.33;14.00;;;27.07;100129.19;;;;117101;1192;25503;-75
2022/09/15 08:03:53;;;;;;;;;13.25;9.75;;;27.07;100132.80;;;;117091;1192;25799;-73
2022/09/15 08:06:24;;;;;;;;;24.50;16.50;;;27.06;100141.34;;;;117013;1193;25425;-78
2022/09/15 08:08:52;;;;;;;;;22.00;16.00;;;27.04;100144.63;;;;117201;1192;24854;-77
2022/09/15 08:11:28;;;;;;;;;17.75;15.00;;;27.06;100157.07;;;;117121;1192;25564;-79
2022/09/15 08:14:01;;;;;;;;;15.67;14.33;;;27.07;100142.79;;;;117192;1192;25696;-79
2022/09/15 08:16:29;;;;;;;;;16.25;12.25;;;27.07;100148.92;;;;117390;1191;25414;-78
2022/09/15 08:18:58;;;;;;;;;17.00;14.33;;;27.08;100152.03;;;;117080;1191;25595;-78
2022/09/15 08:21:27;;;;;;;;;15.50;13.25;;;27.06;100152.50;;;;117410;1189;25662;-78
2022/09/15 08:23:58;;;;;;;;;9.50;8.50;;;27.08;100142.63;;;;117153;1191;24905;-73
2022/09/15 08:26:28;;;;;;;;;14.67;13.00;;;27.07;100143.75;;;;117095;1191;25460;-79
2022/09/15 08:28:57;;;;;;;;;12.50;10.25;;;27.07;100138.75;;;;117049;1193;24996;-75
2022/09/15 08:31:25;;;;;;;;;11.00;11.00;;;27.06;100136.95;;;;117104;1193;25817;-77
2022/09/15 08:33:55;;;;;;;;;12.33;9.00;;;27.02;100135.04;;;;117163;1192;25000;-70
2022/09/15 08:36:26;;;;;;;;;16.25;12.25;;;27.05;100136.90;;;;117070;1193;24761;-72
2022/09/15 08:38:55;;;;;;;;;16.67;13.00;;;27.08;100143.38;;;;117179;1192;25125;-74
2022/09/15 08:41:29;;;;;;;;;13.75;13.25;;;27.10;100139.14;;;;117404;1191;25405;-77
2022/09/15 08:44:30;;;;;;;;;14.33;13.00;;;27.09;100139.90;;;;117089;1192;25614;-73
2022/09/15 08:47:10;;;;;;;;;11.00;9.00;;;27.02;100134.86;;;;117088;1191;25535;-72
2022/09/15 08:49:41;;;;;;;;;11.25;9.50;;;27.15;100140.55;;;;117098;1191;25430;-73
2022/09/15 08:52:25;;;;;;;;;14.00;12.25;;;27.19;100148.02;;;;117303;1190;25868;-74
2022/09/15 08:54:57;;;;;;;;;13.33;9.00;;;27.21;100147.55;;;;117413;1189;25010;-74
2022/09/15 08:57:26;;;;;;;;;10.25;8.50;;;27.21;100146.60;;;;117104;1192;25603;-73
2022/09/15 08:59:55;;;;;;;;;15.25;13.50;;;27.20;100138.88;;;;117167;1191;25587;-72
2022/09/15 09:02:29;;;;;;;;;13.00;12.25;;;27.20;100131.15;;;;117219;1191;25471;-74
2022/09/15 09:05:15;;;;;;;;;10.67;10.33;;;27.19;100128.79;;;;117144;1191;24939;-73
2022/09/15 09:07:51;;;;;;;;;15.50;12.00;;;27.19;100126.61;;;;117087;1192;25833;-74
2022/09/15 09:10:32;;;;;;;;;11.00;11.00;;;27.21;100128.35;;;;117162;1192;25747;-77
2022/09/15 09:13:00;;;;;;;;;11.00;10.67;;;27.21;100122.26;;;;117398;1191;25082;-77
2022/09/15 09:15:59;;;;;;;;;12.75;12.75;;;27.22;100109.41;;;;117183;1191;24929;-75
2022/09/15 09:18:50;;;;;;;;;10.00;8.25;;;27.20;100096.16;;;;117205;1191;25682;-73
2022/09/15 09:21:52;;;;;;;;;12.67;10.67;;;27.18;100081.09;;;;117133;1191;25647;-73
2022/09/15 09:24:38;;;;;;;;;13.00;9.33;;;27.20;100074.66;;;;117155;1191;25508;-74
2022/09/15 09:27:13;;;;;;;;;13.00;10.50;;;27.23;100074.08;;;;117156;1192;25408;-74
2022/09/15 09:29:48;;;;;;;;;17.00;13.75;;;27.22;100073.83;;;;117196;1192;25464;-73
2022/09/15 09:32:25;;;;;;;;;12.00;11.00;;;27.22;100070.73;;;;117164;1191;25447;-73
2022/09/15 09:35:11;;;;;;;;;12.67;10.67;;;27.22;100068.04;;;;117111;1191;24734;-75
2022/09/15 09:37:39;;;;;;;;;11.50;9.75;;;27.22;100068.55;;;;117112;1192;25576;-72
2022/09/15 09:40:13;;;;;;;;;13.00;9.00;;;27.21;100063.07;;;;117062;1191;24920;-73
2022/09/15 09:42:42;;;;;;;;;11.25;8.75;;;27.20;100066.48;;;;117146;1192;25472;-74
2022/09/15 09:45:17;;;;;;;;;11.67;11.67;;;27.19;100072.81;;;;117192;1191;25697;-74
2022/09/15 09:47:46;;;;;;;;;15.50;12.50;;;27.18;100077.67;;;;117171;1192;25286;-72
2022/09/15 09:50:41;;;;;;;;;10.25;8.25;;;27.19;100072.80;;;;117407;1191;25429;-72
2022/09/15 09:53:32;;;;;;;;;11.25;11.25;;;27.18;100066.05;;;;117122;1191;25572;-73
2022/09/15 09:56:23;;;;;;;;;15.50;12.00;;;27.19;100067.42;;;;117425;1191;25027;-73
2022/09/15 09:58:53;;;;;;;;;15.00;11.00;;;27.18;100063.98;;;;117161;1192;24976;-74
2022/09/15 10:01:24;;;;;;;;;11.75;10.25;;;27.17;100063.70;;;;117186;1191;25048;-73
2022/09/15 10:04:17;;;;;;;;;10.00;8.75;;;27.16;100060.67;;;;117162;1192;26184;-73
2022/09/15 10:06:46;;;;;;;;;9.50;9.50;;;27.17;100055.68;;;;117156;1190;24866;-74
2022/09/15 10:09:17;;;;;;;;;9.75;8.75;;;27.19;100051.10;;;;117124;1189;25315;-73
2022/09/15 10:11:46;;;;;;;;;11.00;9.25;;;27.19;100042.48;;;;117372;1189;25002;-74
2022/09/15 10:14:40;;;;;;;;;14.75;10.00;;;27.18;100037.01;;;;117157;1191;24884;-73
2022/09/15 10:17:14;;;;;;;;;14.00;9.75;;;27.20;100038.98;;;;117311;1191;25656;-72
2022/09/15 10:19:51;;;;;;;;;8.00;8.00;;;27.22;100041.16;;;;117375;1190;25064;-73
2022/09/15 10:22:27;;;;;;;;;15.00;10.25;;;27.21;100047.89;;;;117378;1191;25741;-73
2022/09/15 10:24:57;;;;;;;;;13.50;10.00;;;27.21;100046.52;;;;117203;1192;24949;-73
2022/09/15 10:27:34;;;;;;;;;11.25;10.50;;;27.21;100047.77;;;;117068;1193;25398;-74
2022/09/15 10:30:12;;;;;;;;;8.75;8.75;;;27.20;100045.92;;;;117132;1193;25531;-74
2022/09/15 10:32:42;;;;;;;;;13.33;10.00;;;27.19;100039.39;;;;117120;1192;25238;-74
2022/09/15 10:35:18;;;;;;;;;11.25;8.50;;;27.19;100038.06;;;;117037;1192;25397;-74
2022/09/15 10:37:58;;;;;;;;;14.50;11.50;;;27.17;100039.34;;;;117020;1193;24704;-76
2022/09/15 10:41:11;;;;;;;;;12.00;9.75;;;27.18;100034.11;;;;117135;1192;24992;-74
2022/09/15 10:44:17;;;;;;;;;11.00;8.25;;;27.22;100033.10;;;;117079;1192;24875;-75
2022/09/15 10:47:01;;;;;;;;;7.50;7.50;;;27.24;100031.25;;;;117047;1193;25101;-73
2022/09/15 10:49:52;;;;;;;;;15.00;8.00;;;27.22;100031.05;;;;117082;1193;25636;-75
2022/09/15 10:52:42;;;;;;;;;11.00;9.75;;;27.21;100023.05;;;;117015;1192;24765;-74
2022/09/15 10:55:29;;;;;;;;;10.75;8.75;;;27.22;100024.73;;;;117030;1193;25726;-74
2022/09/15 10:58:36;;;;;;;;;8.67;5.67;;;27.23;100021.93;;;;117050;1192;25625;-74
2022/09/15 11:01:31;;;;;;;;;12.50;9.00;;;27.25;100015.20;;;;117086;1193;25308;-73
2022/09/15 11:04:09;;;;;;;;;11.75;10.00;;;27.24;100015.73;;;;117122;1193;25718;-73
2022/09/15 11:07:00;;;;;;;;;13.00;9.67;;;27.23;100013.52;;;;117116;1192;24876;-73
2022/09/15 11:09:37;;;;;;;;;12.50;7.00;;;27.22;100006.81;;;;117095;1193;25357;-74
2022/09/15 11:12:43;;;;;;;;;10.25;8.00;;;27.21;100001.10;;;;117331;1191;24906;-74
2022/09/15 11:15:20;;;;;;;;;10.25;7.25;;;27.26;99998.23;;;;117984;1192;25022;-74
2022/09/15 11:17:57;;;;;;;;;11.75;10.25;;;27.40;99993.95;;;;117318;1191;25468;-83
2022/09/15 11:20:41;;;;;;;;;9.67;7.33;;;27.42;99990.31;;;;117052;1193;25588;-75
2022/09/15 11:23:15;;;;;;;;;9.00;6.50;;;27.37;99985.90;;;;117044;1193;25741;-74
2022/09/15 11:26:09;;;;;;;;;12.75;8.25;;;27.35;99986.77;;;;117008;1193;25339;-75
2022/09/15 11:28:46;;;;;;;;;9.00;9.00;;;27.34;99976.92;;;;117062;1192;25047;-73
2022/09/15 11:31:26;;;;;;;;;10.50;8.25;;;27.35;99975.05;;;;117048;1193;25686;-74
2022/09/15 11:33:58;;;;;;;;;10.33;9.33;;;27.33;99970.27;;;;117012;1193;25571;-72
2022/09/15 11:36:40;;;;;;;;;11.50;10.25;;;27.31;99969.96;;;;117023;1192;26286;-72
2022/09/15 11:39:18;;;;;;;;;8.00;7.67;;;27.29;99967.59;;;;117126;1192;25080;-72
2022/09/15 11:41:49;;;;;;;;;11.50;8.50;;;27.28;99965.84;;;;117043;1193;25072;-73
2022/09/15 11:44:30;;;;;;;;;13.00;8.75;;;27.28;99974.13;;;;117125;1192;25580;-73
2022/09/15 11:47:04;;;;;;;;;10.00;7.50;;;27.26;99975.83;;;;117106;1193;25518;-72
2022/09/15 11:49:47;;;;;;;;;10.75;7.00;;;27.26;99973.92;;;;117118;1192;25090;-72
2022/09/15 11:52:31;;;;;;;;;12.25;10.00;;;27.24;99974.58;;;;117126;1192;25201;-72
2022/09/15 11:55:15;;;;;;;;;7.67;6.33;;;27.24;99975.44;;;;117075;1192;25421;-73
2022/09/15 11:57:48;;;;;;;;;9.00;6.75;;;27.26;99977.17;;;;116919;1194;25491;-73
2022/09/15 12:00:16;;;;;;;;;10.25;10.25;;;27.26;99976.83;;;;117018;1192;25480;-72
2022/09/15 12:03:02;;;;;;;;;12.00;7.50;;;27.25;99981.49;;;;117030;1193;25435;-74
2022/09/15 12:05:52;;;;;;;;;8.00;8.00;;;27.24;99988.05;;;;117048;1193;25159;-73
2022/09/15 12:08:26;;;;;;;;;10.25;9.25;;;27.25;99988.56;;;;117038;1193;25582;-74
2022/09/15 12:10:56;;;;;;;;;11.67;9.33;;;27.28;99992.02;;;;117050;1193;24708;-73
2022/09/15 12:13:25;;;;;;;;;13.50;10.25;;;27.27;99994.75;;;;117032;1193;25061;-72
2022/09/15 12:15:54;;;;;;;;;9.00;9.00;;;27.26;99987.73;;;;117050;1193;25414;-73
2022/09/15 12:18:47;;;;;;;;;11.75;9.25;;;27.25;99997.33;;;;117029;1192;25512;-72
2022/09/15 12:21:49;;;;;;;;;12.25;8.75;;;27.23;99988.78;;;;117047;1194;25489;-72
2022/09/15 12:24:55;;;;;;;;;17.67;11.33;;;27.21;99986.78;;;;117032;1193;25650;-72
2022/09/15 12:27:28;;;;;;;;;12.33;10.67;;;27.22;99997.44;;;;116812;1196;24978;-72
2022/09/15 12:29:59;;;;;;;;;11.50;10.25;;;27.25;99986.48;;;;116830;1195;25488;-72